sensor_id;sensor_type;location;lat;lon;timestamp;P1;durP1;ratioP1;P2;durP2;ratioP2
33794;SDS011;51430;52.242;21.118;2024-02-26T00:00:07;29.30;;;24.20;;
33794;SDS011;51430;52.242;21.118;2024-02-26T00:02:57;30.70;;;25.10;;
33794;SDS011;51430;52.242;21.118;2024-02-26T00:05:25;31.40;;;24.80;;
33794;SDS011;51430;52.242;21.118;2024-02-26T00:07:54;28.80;;;24.40;;
33794;SDS011;51430;52.242;21.118;2024-02-26T00:10:22;32.10;;;26.50;;
33794;SDS011;51430;52.242;21.118;2024-02-26T00:12:50;34.00;;;28.00;;
33794;SDS011;51430;52.242;21.118;2024-02-26T00:15:18;33.20;;;27.80;;
33794;SDS011;51430;52.242;21.118;2024-02-26T00:17:46;30.80;;;26.20;;
33794;SDS011;51430;52.242;21.118;2024-02-26T00:21:57;28.10;;;21.60;;
33794;SDS011;51430;52.242;21.118;2024-02-26T00:25:35;25.50;;;19.60;;
33794;SDS011;51430;52.242;21.118;2024-02-26T00:29:19;32.10;;;20.70;;
33794;SDS011;51430;52.242;21.118;2024-02-26T00:31:47;27.60;;;23.20;;
33794;SDS011;51430;52.242;21.118;2024-02-26T00:34:15;28.90;;;23.50;;
33794;SDS011;51430;52.242;21.118;2024-02-26T00:36:44;26.70;;;22.90;;
33794;SDS011;51430;52.242;21.118;2024-02-26T00:39:12;26.30;;;23.00;;
33794;SDS011;51430;52.242;21.118;2024-02-26T00:41:40;27.30;;;23.40;;
33794;SDS011;51430;52.242;21.118;2024-02-26T00:44:09;26.30;;;22.70;;
33794;SDS011;51430;52.242;21.118;2024-02-26T00:54:02;23.90;;;18.80;;
33794;SDS011;51430;52.242;21.118;2024-02-26T00:57:52;22.30;;;17.50;;
33794;SDS011;51430;52.242;21.118;2024-02-26T01:01:26;24.90;;;18.40;;
33794;SDS011;51430;52.242;21.118;2024-02-26T01:04:50;30.50;;;19.40;;
33794;SDS011;51430;52.242;21.118;2024-02-26T01:08:27;20.70;;;17.20;;
33794;SDS011;51430;52.242;21.118;2024-02-26T01:12:07;25.60;;;19.40;;
33794;SDS011;51430;52.242;21.118;2024-02-26T01:15:48;27.50;;;19.60;;
33794;SDS011;51430;52.242;21.118;2024-02-26T01:23:37;24.20;;;19.50;;
33794;SDS011;51430;52.242;21.118;2024-02-26T01:27:12;25.10;;;19.50;;
33794;SDS011;51430;52.242;21.118;2024-02-26T01:30:45;23.10;;;18.80;;
33794;SDS011;51430;52.242;21.118;2024-02-26T01:34:24;24.20;;;18.50;;
33794;SDS011;51430;52.242;21.118;2024-02-26T01:38:12;25.30;;;18.30;;
33794;SDS011;51430;52.242;21.118;2024-02-26T01:41:41;26.50;;;19.80;;
33794;SDS011;51430;52.242;21.118;2024-02-26T01:45:22;24.20;;;20.30;;
33794;SDS011;51430;52.242;21.118;2024-02-26T01:49:06;29.00;;;20.10;;
33794;SDS011;51430;52.242;21.118;2024-02-26T01:52:44;31.10;;;20.90;;
33794;SDS011;51430;52.242;21.118;2024-02-26T01:56:20;26.90;;;21.10;;
33794;SDS011;51430;52.242;21.118;2024-02-26T02:00:02;24.40;;;19.40;;
33794;SDS011;51430;52.242;21.118;2024-02-26T02:04:03;27.80;;;20.50;;
33794;SDS011;51430;52.242;21.118;2024-02-26T02:07:15;23.70;;;20.10;;
33794;SDS011;51430;52.242;21.118;2024-02-26T02:11:04;25.40;;;19.90;;
33794;SDS011;51430;52.242;21.118;2024-02-26T02:14:32;23.30;;;19.90;;
33794;SDS011;51430;52.242;21.118;2024-02-26T02:17:00;27.70;;;24.30;;
33794;SDS011;51430;52.242;21.118;2024-02-26T02:19:28;29.90;;;25.30;;
33794;SDS011;51430;52.242;21.118;2024-02-26T02:21:56;28.90;;;24.50;;
33794;SDS011;51430;52.242;21.118;2024-02-26T02:24:25;27.00;;;24.10;;
33794;SDS011;51430;52.242;21.118;2024-02-26T02:26:53;29.40;;;24.70;;
33794;SDS011;51430;52.242;21.118;2024-02-26T02:29:59;25.70;;;21.50;;
33794;SDS011;51430;52.242;21.118;2024-02-26T02:33:15;26.40;;;19.70;;
33794;SDS011;51430;52.242;21.118;2024-02-26T02:37:00;25.90;;;19.80;;
33794;SDS011;51430;52.242;21.118;2024-02-26T02:40:34;26.60;;;20.60;;
33794;SDS011;51430;52.242;21.118;2024-02-26T02:44:15;26.10;;;19.80;;
33794;SDS011;51430;52.242;21.118;2024-02-26T02:47:58;24.90;;;20.30;;
33794;SDS011;51430;52.242;21.118;2024-02-26T02:51:31;24.90;;;20.30;;
33794;SDS011;51430;52.242;21.118;2024-02-26T02:55:13;28.20;;;21.10;;
33794;SDS011;51430;52.242;21.118;2024-02-26T02:58:47;26.20;;;21.60;;
33794;SDS011;51430;52.242;21.118;2024-02-26T03:07:29;25.70;;;20.60;;
33794;SDS011;51430;52.242;21.118;2024-02-26T03:11:07;30.30;;;21.30;;
33794;SDS011;51430;52.242;21.118;2024-02-26T03:14:46;25.70;;;21.70;;
33794;SDS011;51430;52.242;21.118;2024-02-26T03:28:53;28.20;;;21.70;;
33794;SDS011;51430;52.242;21.118;2024-02-26T03:31:43;26.10;;;20.00;;
33794;SDS011;51430;52.242;21.118;2024-02-26T03:35:20;23.50;;;18.90;;
33794;SDS011;51430;52.242;21.118;2024-02-26T03:39:15;25.30;;;18.90;;
33794;SDS011;51430;52.242;21.118;2024-02-26T03:42:37;23.10;;;19.00;;
33794;SDS011;51430;52.242;21.118;2024-02-26T03:46:31;25.30;;;19.00;;
33794;SDS011;51430;52.242;21.118;2024-02-26T03:49:51;23.90;;;18.90;;
33794;SDS011;51430;52.242;21.118;2024-02-26T03:53:31;25.20;;;19.20;;
33794;SDS011;51430;52.242;21.118;2024-02-26T03:57:11;22.00;;;18.70;;
33794;SDS011;51430;52.242;21.118;2024-02-26T04:00:52;27.20;;;21.00;;
33794;SDS011;51430;52.242;21.118;2024-02-26T04:04:36;28.60;;;23.80;;
33794;SDS011;51430;52.242;21.118;2024-02-26T04:08:17;23.20;;;19.10;;
33794;SDS011;51430;52.242;21.118;2024-02-26T04:11:57;22.70;;;18.10;;
33794;SDS011;51430;52.242;21.118;2024-02-26T04:15:38;23.90;;;19.40;;
33794;SDS011;51430;52.242;21.118;2024-02-26T04:19:18;27.40;;;19.20;;
33794;SDS011;51430;52.242;21.118;2024-02-26T04:23:00;21.50;;;18.50;;
33794;SDS011;51430;52.242;21.118;2024-02-26T04:26:54;21.40;;;18.50;;
33794;SDS011;51430;52.242;21.118;2024-02-26T04:30:12;23.50;;;19.00;;
33794;SDS011;51430;52.242;21.118;2024-02-26T04:32:41;25.80;;;22.30;;
33794;SDS011;51430;52.242;21.118;2024-02-26T04:35:09;27.20;;;22.00;;
33794;SDS011;51430;52.242;21.118;2024-02-26T04:37:41;26.40;;;23.40;;
33794;SDS011;51430;52.242;21.118;2024-02-26T04:40:11;25.90;;;23.00;;
33794;SDS011;51430;52.242;21.118;2024-02-26T04:42:41;25.70;;;22.90;;
33794;SDS011;51430;52.242;21.118;2024-02-26T04:45:09;26.90;;;23.10;;
33794;SDS011;51430;52.242;21.118;2024-02-26T04:47:37;27.20;;;24.30;;
33794;SDS011;51430;52.242;21.118;2024-02-26T04:50:05;26.60;;;23.80;;
33794;SDS011;51430;52.242;21.118;2024-02-26T04:52:34;26.30;;;22.60;;
33794;SDS011;51430;52.242;21.118;2024-02-26T04:55:29;23.40;;;19.00;;
33794;SDS011;51430;52.242;21.118;2024-02-26T04:59:04;22.70;;;17.90;;
33794;SDS011;51430;52.242;21.118;2024-02-26T05:02:45;19.90;;;17.00;;
33794;SDS011;51430;52.242;21.118;2024-02-26T05:06:23;19.80;;;17.60;;
33794;SDS011;51430;52.242;21.118;2024-02-26T05:10:00;20.50;;;17.40;;
33794;SDS011;51430;52.242;21.118;2024-02-26T05:13:38;22.30;;;17.60;;
33794;SDS011;51430;52.242;21.118;2024-02-26T05:16:06;28.20;;;22.90;;
33794;SDS011;51430;52.242;21.118;2024-02-26T05:18:35;29.60;;;23.50;;
33794;SDS011;51430;52.242;21.118;2024-02-26T05:21:04;25.90;;;23.10;;
33794;SDS011;51430;52.242;21.118;2024-02-26T05:23:32;26.70;;;22.90;;
33794;SDS011;51430;52.242;21.118;2024-02-26T05:26:21;29.00;;;23.80;;
33794;SDS011;51430;52.242;21.118;2024-02-26T05:29:24;26.80;;;22.70;;
33794;SDS011;51430;52.242;21.118;2024-02-26T05:32:08;27.00;;;23.70;;
33794;SDS011;51430;52.242;21.118;2024-02-26T05:42:16;22.10;;;17.70;;
33794;SDS011;51430;52.242;21.118;2024-02-26T05:44:50;25.90;;;22.00;;
33794;SDS011;51430;52.242;21.118;2024-02-26T05:47:20;24.30;;;21.70;;
33794;SDS011;51430;52.242;21.118;2024-02-26T05:49:50;25.30;;;22.60;;
33794;SDS011;51430;52.242;21.118;2024-02-26T05:53:11;24.40;;;21.70;;
33794;SDS011;51430;52.242;21.118;2024-02-26T05:55:42;25.50;;;22.80;;
33794;SDS011;51430;52.242;21.118;2024-02-26T05:58:17;24.70;;;22.10;;
33794;SDS011;51430;52.242;21.118;2024-02-26T06:01:37;25.50;;;22.80;;
33794;SDS011;51430;52.242;21.118;2024-02-26T06:04:53;25.90;;;22.40;;
33794;SDS011;51430;52.242;21.118;2024-02-26T06:08:06;24.90;;;21.80;;
33794;SDS011;51430;52.242;21.118;2024-02-26T06:10:33;24.70;;;22.10;;
33794;SDS011;51430;52.242;21.118;2024-02-26T06:13:00;26.00;;;22.40;;
33794;SDS011;51430;52.242;21.118;2024-02-26T06:15:27;24.60;;;22.00;;
33794;SDS011;51430;52.242;21.118;2024-02-26T06:17:54;24.30;;;21.80;;
33794;SDS011;51430;52.242;21.118;2024-02-26T06:20:21;24.30;;;21.80;;
33794;SDS011;51430;52.242;21.118;2024-02-26T06:22:48;24.20;;;21.30;;
33794;SDS011;51430;52.242;21.118;2024-02-26T06:25:16;24.80;;;21.30;;
33794;SDS011;51430;52.242;21.118;2024-02-26T06:27:43;24.60;;;21.80;;
33794;SDS011;51430;52.242;21.118;2024-02-26T06:30:10;24.70;;;21.70;;
33794;SDS011;51430;52.242;21.118;2024-02-26T06:32:38;24.10;;;21.60;;
33794;SDS011;51430;52.242;21.118;2024-02-26T06:35:07;23.50;;;21.00;;
33794;SDS011;51430;52.242;21.118;2024-02-26T06:40:15;25.80;;;21.50;;
33794;SDS011;51430;52.242;21.118;2024-02-26T06:42:46;27.90;;;24.40;;
33794;SDS011;51430;52.242;21.118;2024-02-26T06:45:17;30.60;;;27.50;;
33794;SDS011;51430;52.242;21.118;2024-02-26T06:47:46;29.40;;;26.20;;
33794;SDS011;51430;52.242;21.118;2024-02-26T06:50:14;33.00;;;29.50;;
33794;SDS011;51430;52.242;21.118;2024-02-26T06:52:44;31.00;;;27.90;;
33794;SDS011;51430;52.242;21.118;2024-02-26T06:55:16;29.10;;;26.10;;
33794;SDS011;51430;52.242;21.118;2024-02-26T06:57:46;30.20;;;27.20;;
33794;SDS011;51430;52.242;21.118;2024-02-26T07:00:15;28.80;;;26.00;;
33794;SDS011;51430;52.242;21.118;2024-02-26T07:02:44;25.40;;;22.90;;
33794;SDS011;51430;52.242;21.118;2024-02-26T07:05:13;26.20;;;23.50;;
33794;SDS011;51430;52.242;21.118;2024-02-26T07:07:41;24.30;;;21.90;;
33794;SDS011;51430;52.242;21.118;2024-02-26T07:10:10;23.20;;;20.90;;
33794;SDS011;51430;52.242;21.118;2024-02-26T07:12:40;22.70;;;20.40;;
33794;SDS011;51430;52.242;21.118;2024-02-26T07:15:09;23.00;;;19.90;;
33794;SDS011;51430;52.242;21.118;2024-02-26T07:17:37;22.50;;;20.10;;
33794;SDS011;51430;52.242;21.118;2024-02-26T07:20:09;22.00;;;19.70;;
33794;SDS011;51430;52.242;21.118;2024-02-26T07:22:39;22.30;;;19.80;;
33794;SDS011;51430;52.242;21.118;2024-02-26T07:25:09;21.30;;;19.10;;
33794;SDS011;51430;52.242;21.118;2024-02-26T07:27:41;21.50;;;19.40;;
33794;SDS011;51430;52.242;21.118;2024-02-26T07:30:09;21.60;;;18.60;;
33794;SDS011;51430;52.242;21.118;2024-02-26T07:32:43;21.10;;;19.00;;
33794;SDS011;51430;52.242;21.118;2024-02-26T07:35:18;21.00;;;18.90;;
33794;SDS011;51430;52.242;21.118;2024-02-26T07:37:50;21.30;;;19.00;;
33794;SDS011;51430;52.242;21.118;2024-02-26T07:40:18;21.20;;;18.90;;
33794;SDS011;51430;52.242;21.118;2024-02-26T07:42:46;20.40;;;18.20;;
33794;SDS011;51430;52.242;21.118;2024-02-26T07:45:15;20.40;;;18.30;;
33794;SDS011;51430;52.242;21.118;2024-02-26T07:47:46;20.90;;;18.90;;
33794;SDS011;51430;52.242;21.118;2024-02-26T07:50:15;19.70;;;17.80;;
33794;SDS011;51430;52.242;21.118;2024-02-26T07:52:45;18.30;;;16.60;;
33794;SDS011;51430;52.242;21.118;2024-02-26T07:55:14;21.10;;;17.40;;
33794;SDS011;51430;52.242;21.118;2024-02-26T07:57:42;18.40;;;16.70;;
33794;SDS011;51430;52.242;21.118;2024-02-26T08:00:11;18.90;;;16.90;;
33794;SDS011;51430;52.242;21.118;2024-02-26T08:02:44;18.50;;;16.70;;
33794;SDS011;51430;52.242;21.118;2024-02-26T08:05:12;18.60;;;16.40;;
33794;SDS011;51430;52.242;21.118;2024-02-26T08:07:40;18.80;;;16.90;;
33794;SDS011;51430;52.242;21.118;2024-02-26T08:10:08;19.30;;;17.20;;
33794;SDS011;51430;52.242;21.118;2024-02-26T08:12:36;18.20;;;16.20;;
33794;SDS011;51430;52.242;21.118;2024-02-26T08:15:04;18.50;;;16.70;;
33794;SDS011;51430;52.242;21.118;2024-02-26T08:17:38;18.90;;;16.30;;
33794;SDS011;51430;52.242;21.118;2024-02-26T08:20:09;18.30;;;16.40;;
33794;SDS011;51430;52.242;21.118;2024-02-26T08:22:56;14.60;;;13.10;;
33794;SDS011;51430;52.242;21.118;2024-02-26T08:25:26;14.60;;;13.20;;
33794;SDS011;51430;52.242;21.118;2024-02-26T08:27:55;13.30;;;12.10;;
33794;SDS011;51430;52.242;21.118;2024-02-26T08:30:26;14.40;;;13.10;;
33794;SDS011;51430;52.242;21.118;2024-02-26T08:32:54;14.90;;;13.50;;
33794;SDS011;51430;52.242;21.118;2024-02-26T08:35:27;15.00;;;13.50;;
33794;SDS011;51430;52.242;21.118;2024-02-26T08:37:58;15.10;;;13.60;;
33794;SDS011;51430;52.242;21.118;2024-02-26T08:40:26;15.10;;;13.70;;
33794;SDS011;51430;52.242;21.118;2024-02-26T08:42:56;15.50;;;14.10;;
33794;SDS011;51430;52.242;21.118;2024-02-26T08:45:25;15.40;;;13.80;;
33794;SDS011;51430;52.242;21.118;2024-02-26T08:47:57;16.50;;;14.70;;
33794;SDS011;51430;52.242;21.118;2024-02-26T08:50:28;15.50;;;14.10;;
33794;SDS011;51430;52.242;21.118;2024-02-26T08:52:56;15.20;;;13.90;;
33794;SDS011;51430;52.242;21.118;2024-02-26T08:55:25;14.70;;;13.20;;
33794;SDS011;51430;52.242;21.118;2024-02-26T08:57:53;14.90;;;13.40;;
33794;SDS011;51430;52.242;21.118;2024-02-26T09:00:23;15.40;;;14.00;;
33794;SDS011;51430;52.242;21.118;2024-02-26T09:02:51;14.60;;;13.20;;
33794;SDS011;51430;52.242;21.118;2024-02-26T09:05:22;15.70;;;14.30;;
33794;SDS011;51430;52.242;21.118;2024-02-26T09:07:52;16.00;;;14.60;;
33794;SDS011;51430;52.242;21.118;2024-02-26T09:10:21;16.50;;;15.10;;
33794;SDS011;51430;52.242;21.118;2024-02-26T09:12:50;17.20;;;15.50;;
33794;SDS011;51430;52.242;21.118;2024-02-26T09:15:18;17.40;;;15.60;;
33794;SDS011;51430;52.242;21.118;2024-02-26T09:17:59;16.50;;;15.10;;
33794;SDS011;51430;52.242;21.118;2024-02-26T09:20:31;16.70;;;15.20;;
33794;SDS011;51430;52.242;21.118;2024-02-26T09:22:59;17.70;;;16.10;;
33794;SDS011;51430;52.242;21.118;2024-02-26T09:25:30;17.00;;;15.50;;
33794;SDS011;51430;52.242;21.118;2024-02-26T09:27:59;17.10;;;15.70;;
33794;SDS011;51430;52.242;21.118;2024-02-26T09:30:31;16.40;;;15.10;;
33794;SDS011;51430;52.242;21.118;2024-02-26T09:33:00;16.60;;;15.10;;
33794;SDS011;51430;52.242;21.118;2024-02-26T09:35:28;17.60;;;16.10;;
33794;SDS011;51430;52.242;21.118;2024-02-26T09:37:59;16.40;;;15.00;;
33794;SDS011;51430;52.242;21.118;2024-02-26T09:40:52;17.00;;;15.50;;
33794;SDS011;51430;52.242;21.118;2024-02-26T09:43:21;16.80;;;15.40;;
33794;SDS011;51430;52.242;21.118;2024-02-26T09:45:53;16.60;;;15.20;;
33794;SDS011;51430;52.242;21.118;2024-02-26T09:48:30;15.80;;;14.50;;
33794;SDS011;51430;52.242;21.118;2024-02-26T09:51:01;14.80;;;13.60;;
33794;SDS011;51430;52.242;21.118;2024-02-26T09:53:31;14.70;;;13.60;;
33794;SDS011;51430;52.242;21.118;2024-02-26T09:56:02;14.70;;;13.60;;
33794;SDS011;51430;52.242;21.118;2024-02-26T09:58:31;14.40;;;13.20;;
33794;SDS011;51430;52.242;21.118;2024-02-26T10:01:02;14.10;;;13.00;;
33794;SDS011;51430;52.242;21.118;2024-02-26T10:03:56;15.70;;;14.40;;
33794;SDS011;51430;52.242;21.118;2024-02-26T10:06:30;15.40;;;14.00;;
33794;SDS011;51430;52.242;21.118;2024-02-26T10:09:01;15.40;;;14.00;;
33794;SDS011;51430;52.242;21.118;2024-02-26T10:11:34;16.20;;;14.70;;
33794;SDS011;51430;52.242;21.118;2024-02-26T10:14:12;16.40;;;15.00;;
33794;SDS011;51430;52.242;21.118;2024-02-26T10:16:43;16.90;;;15.60;;
33794;SDS011;51430;52.242;21.118;2024-02-26T10:19:24;18.60;;;16.90;;
33794;SDS011;51430;52.242;21.118;2024-02-26T10:21:58;18.20;;;16.70;;
33794;SDS011;51430;52.242;21.118;2024-02-26T10:24:32;17.80;;;16.30;;
33794;SDS011;51430;52.242;21.118;2024-02-26T10:27:02;17.30;;;15.70;;
33794;SDS011;51430;52.242;21.118;2024-02-26T10:29:31;15.40;;;14.20;;
33794;SDS011;51430;52.242;21.118;2024-02-26T10:31:59;14.30;;;13.10;;
33794;SDS011;51430;52.242;21.118;2024-02-26T10:34:28;16.10;;;14.80;;
33794;SDS011;51430;52.242;21.118;2024-02-26T10:37:00;16.20;;;14.70;;
33794;SDS011;51430;52.242;21.118;2024-02-26T10:39:32;16.20;;;14.70;;
33794;SDS011;51430;52.242;21.118;2024-02-26T10:42:00;16.90;;;15.50;;
33794;SDS011;51430;52.242;21.118;2024-02-26T10:44:35;16.30;;;14.90;;
33794;SDS011;51430;52.242;21.118;2024-02-26T10:47:05;16.20;;;14.60;;
33794;SDS011;51430;52.242;21.118;2024-02-26T10:49:35;16.20;;;14.80;;
33794;SDS011;51430;52.242;21.118;2024-02-26T10:52:04;15.10;;;13.90;;
33794;SDS011;51430;52.242;21.118;2024-02-26T10:54:34;14.70;;;13.30;;
33794;SDS011;51430;52.242;21.118;2024-02-26T10:57:06;12.40;;;11.20;;
33794;SDS011;51430;52.242;21.118;2024-02-26T10:59:37;11.90;;;10.90;;
33794;SDS011;51430;52.242;21.118;2024-02-26T11:02:11;11.10;;;10.20;;
33794;SDS011;51430;52.242;21.118;2024-02-26T11:04:42;10.50;;;9.60;;
33794;SDS011;51430;52.242;21.118;2024-02-26T11:07:11;9.10;;;8.30;;
33794;SDS011;51430;52.242;21.118;2024-02-26T11:09:40;9.30;;;8.50;;
33794;SDS011;51430;52.242;21.118;2024-02-26T11:12:12;7.20;;;6.60;;
33794;SDS011;51430;52.242;21.118;2024-02-26T11:14:42;8.30;;;7.50;;
33794;SDS011;51430;52.242;21.118;2024-02-26T11:17:15;6.90;;;6.30;;
33794;SDS011;51430;52.242;21.118;2024-02-26T11:19:47;6.90;;;6.20;;
33794;SDS011;51430;52.242;21.118;2024-02-26T11:22:18;7.10;;;6.50;;
33794;SDS011;51430;52.242;21.118;2024-02-26T11:24:55;7.10;;;6.50;;
33794;SDS011;51430;52.242;21.118;2024-02-26T11:27:29;6.30;;;5.80;;
33794;SDS011;51430;52.242;21.118;2024-02-26T11:30:09;6.40;;;5.80;;
33794;SDS011;51430;52.242;21.118;2024-02-26T11:32:38;6.50;;;5.90;;
33794;SDS011;51430;52.242;21.118;2024-02-26T11:35:08;7.30;;;6.60;;
33794;SDS011;51430;52.242;21.118;2024-02-26T11:37:38;7.10;;;6.40;;
33794;SDS011;51430;52.242;21.118;2024-02-26T11:40:11;7.10;;;6.30;;
33794;SDS011;51430;52.242;21.118;2024-02-26T11:42:46;7.00;;;6.30;;
33794;SDS011;51430;52.242;21.118;2024-02-26T11:48:20;6.90;;;6.30;;
33794;SDS011;51430;52.242;21.118;2024-02-26T11:50:53;6.30;;;5.70;;
33794;SDS011;51430;52.242;21.118;2024-02-26T11:56:15;5.80;;;5.30;;
33794;SDS011;51430;52.242;21.118;2024-02-26T11:58:59;5.90;;;5.20;;
33794;SDS011;51430;52.242;21.118;2024-02-26T12:04:30;5.50;;;4.70;;
33794;SDS011;51430;52.242;21.118;2024-02-26T12:07:00;4.90;;;4.30;;
33794;SDS011;51430;52.242;21.118;2024-02-26T12:09:40;4.30;;;3.90;;
33794;SDS011;51430;52.242;21.118;2024-02-26T12:12:10;5.20;;;4.00;;
33794;SDS011;51430;52.242;21.118;2024-02-26T12:14:51;4.00;;;3.60;;
33794;SDS011;51430;52.242;21.118;2024-02-26T12:17:22;4.40;;;3.90;;
33794;SDS011;51430;52.242;21.118;2024-02-26T12:19:51;3.70;;;3.40;;
33794;SDS011;51430;52.242;21.118;2024-02-26T12:22:21;4.10;;;3.70;;
33794;SDS011;51430;52.242;21.118;2024-02-26T12:24:58;5.40;;;3.70;;
33794;SDS011;51430;52.242;21.118;2024-02-26T12:27:34;3.80;;;3.50;;
33794;SDS011;51430;52.242;21.118;2024-02-26T12:30:03;4.20;;;3.30;;
33794;SDS011;51430;52.242;21.118;2024-02-26T12:32:31;3.40;;;3.10;;
33794;SDS011;51430;52.242;21.118;2024-02-26T12:35:00;3.80;;;3.50;;
33794;SDS011;51430;52.242;21.118;2024-02-26T12:37:33;3.20;;;2.80;;
33794;SDS011;51430;52.242;21.118;2024-02-26T12:40:10;2.60;;;2.40;;
33794;SDS011;51430;52.242;21.118;2024-02-26T12:42:40;3.00;;;2.80;;
33794;SDS011;51430;52.242;21.118;2024-02-26T12:45:09;3.10;;;2.80;;
33794;SDS011;51430;52.242;21.118;2024-02-26T12:47:40;2.90;;;2.70;;
33794;SDS011;51430;52.242;21.118;2024-02-26T12:50:13;2.70;;;2.50;;
33794;SDS011;51430;52.242;21.118;2024-02-26T12:52:45;2.10;;;1.90;;
33794;SDS011;51430;52.242;21.118;2024-02-26T12:55:16;2.70;;;2.20;;
33794;SDS011;51430;52.242;21.118;2024-02-26T12:57:48;2.80;;;2.50;;
33794;SDS011;51430;52.242;21.118;2024-02-26T13:00:21;3.00;;;2.20;;
33794;SDS011;51430;52.242;21.118;2024-02-26T13:02:51;3.00;;;2.30;;
33794;SDS011;51430;52.242;21.118;2024-02-26T13:05:23;2.40;;;2.00;;
33794;SDS011;51430;52.242;21.118;2024-02-26T13:07:52;2.30;;;2.10;;
33794;SDS011;51430;52.242;21.118;2024-02-26T13:10:21;2.50;;;2.20;;
33794;SDS011;51430;52.242;21.118;2024-02-26T13:12:49;2.40;;;2.20;;
33794;SDS011;51430;52.242;21.118;2024-02-26T13:15:18;2.10;;;1.90;;
33794;SDS011;51430;52.242;21.118;2024-02-26T13:17:48;2.50;;;2.30;;
33794;SDS011;51430;52.242;21.118;2024-02-26T13:20:27;2.90;;;2.10;;
33794;SDS011;51430;52.242;21.118;2024-02-26T13:23:04;2.20;;;1.90;;
33794;SDS011;51430;52.242;21.118;2024-02-26T13:25:35;2.10;;;1.90;;
33794;SDS011;51430;52.242;21.118;2024-02-26T13:30:51;2.70;;;2.10;;
33794;SDS011;51430;52.242;21.118;2024-02-26T13:33:47;2.30;;;2.10;;
33794;SDS011;51430;52.242;21.118;2024-02-26T13:36:17;1.90;;;1.80;;
33794;SDS011;51430;52.242;21.118;2024-02-26T13:38:52;1.90;;;1.80;;
33794;SDS011;51430;52.242;21.118;2024-02-26T13:41:21;2.40;;;2.00;;
33794;SDS011;51430;52.242;21.118;2024-02-26T13:43:53;4.10;;;2.10;;
33794;SDS011;51430;52.242;21.118;2024-02-26T13:46:23;3.60;;;1.90;;
33794;SDS011;51430;52.242;21.118;2024-02-26T13:48:51;2.90;;;2.00;;
33794;SDS011;51430;52.242;21.118;2024-02-26T13:51:22;2.30;;;2.10;;
33794;SDS011;51430;52.242;21.118;2024-02-26T13:53:50;2.80;;;2.00;;
33794;SDS011;51430;52.242;21.118;2024-02-26T13:56:19;3.20;;;2.00;;
33794;SDS011;51430;52.242;21.118;2024-02-26T13:58:47;2.40;;;2.20;;
33794;SDS011;51430;52.242;21.118;2024-02-26T14:01:16;2.50;;;2.10;;
33794;SDS011;51430;52.242;21.118;2024-02-26T14:03:44;2.30;;;1.90;;
33794;SDS011;51430;52.242;21.118;2024-02-26T14:06:13;2.20;;;2.00;;
33794;SDS011;51430;52.242;21.118;2024-02-26T14:08:41;4.00;;;1.90;;
33794;SDS011;51430;52.242;21.118;2024-02-26T14:11:09;3.20;;;1.90;;
33794;SDS011;51430;52.242;21.118;2024-02-26T14:13:38;2.20;;;2.00;;
33794;SDS011;51430;52.242;21.118;2024-02-26T14:16:10;2.00;;;1.80;;
33794;SDS011;51430;52.242;21.118;2024-02-26T14:18:38;2.80;;;2.10;;
33794;SDS011;51430;52.242;21.118;2024-02-26T14:21:06;4.30;;;2.10;;
33794;SDS011;51430;52.242;21.118;2024-02-26T14:23:35;3.30;;;2.10;;
33794;SDS011;51430;52.242;21.118;2024-02-26T14:26:04;2.40;;;2.20;;
33794;SDS011;51430;52.242;21.118;2024-02-26T14:28:32;2.40;;;2.00;;
33794;SDS011;51430;52.242;21.118;2024-02-26T14:31:03;2.80;;;2.00;;
33794;SDS011;51430;52.242;21.118;2024-02-26T14:33:38;3.10;;;2.20;;
33794;SDS011;51430;52.242;21.118;2024-02-26T14:36:11;2.60;;;2.20;;
33794;SDS011;51430;52.242;21.118;2024-02-26T14:38:39;3.00;;;2.20;;
33794;SDS011;51430;52.242;21.118;2024-02-26T14:41:07;2.80;;;2.10;;
33794;SDS011;51430;52.242;21.118;2024-02-26T14:43:35;2.70;;;2.20;;
33794;SDS011;51430;52.242;21.118;2024-02-26T14:46:03;3.50;;;2.50;;
33794;SDS011;51430;52.242;21.118;2024-02-26T14:48:31;2.70;;;2.20;;
33794;SDS011;51430;52.242;21.118;2024-02-26T14:51:00;2.40;;;2.20;;
33794;SDS011;51430;52.242;21.118;2024-02-26T14:53:28;2.40;;;2.20;;
33794;SDS011;51430;52.242;21.118;2024-02-26T14:55:56;2.60;;;2.20;;
33794;SDS011;51430;52.242;21.118;2024-02-26T14:58:25;3.50;;;2.40;;
33794;SDS011;51430;52.242;21.118;2024-02-26T15:00:54;2.90;;;2.40;;
33794;SDS011;51430;52.242;21.118;2024-02-26T15:03:22;3.20;;;2.30;;
33794;SDS011;51430;52.242;21.118;2024-02-26T15:05:51;3.30;;;2.50;;
33794;SDS011;51430;52.242;21.118;2024-02-26T15:08:19;2.60;;;2.40;;
33794;SDS011;51430;52.242;21.118;2024-02-26T15:10:47;4.20;;;2.50;;
33794;SDS011;51430;52.242;21.118;2024-02-26T15:13:37;3.90;;;2.70;;
33794;SDS011;51430;52.242;21.118;2024-02-26T15:16:16;4.20;;;2.60;;
33794;SDS011;51430;52.242;21.118;2024-02-26T15:18:55;2.50;;;2.30;;
33794;SDS011;51430;52.242;21.118;2024-02-26T15:21:24;3.90;;;2.50;;
33794;SDS011;51430;52.242;21.118;2024-02-26T15:23:52;2.80;;;2.60;;
33794;SDS011;51430;52.242;21.118;2024-02-26T15:26:34;3.40;;;3.10;;
33794;SDS011;51430;52.242;21.118;2024-02-26T15:29:02;3.70;;;3.10;;
33794;SDS011;51430;52.242;21.118;2024-02-26T15:31:31;3.50;;;3.20;;
33794;SDS011;51430;52.242;21.118;2024-02-26T15:33:59;3.40;;;2.90;;
33794;SDS011;51430;52.242;21.118;2024-02-26T15:36:28;3.30;;;3.00;;
33794;SDS011;51430;52.242;21.118;2024-02-26T15:38:56;5.00;;;3.10;;
33794;SDS011;51430;52.242;21.118;2024-02-26T15:41:28;4.50;;;3.20;;
33794;SDS011;51430;52.242;21.118;2024-02-26T15:43:56;4.10;;;3.10;;
33794;SDS011;51430;52.242;21.118;2024-02-26T15:46:24;5.20;;;3.20;;
33794;SDS011;51430;52.242;21.118;2024-02-26T15:48:53;4.30;;;3.50;;
33794;SDS011;51430;52.242;21.118;2024-02-26T15:51:27;3.70;;;3.40;;
33794;SDS011;51430;52.242;21.118;2024-02-26T15:53:58;5.00;;;3.80;;
33794;SDS011;51430;52.242;21.118;2024-02-26T15:56:28;4.00;;;3.40;;
33794;SDS011;51430;52.242;21.118;2024-02-26T15:59:03;4.80;;;3.70;;
33794;SDS011;51430;52.242;21.118;2024-02-26T16:01:31;5.90;;;4.20;;
33794;SDS011;51430;52.242;21.118;2024-02-26T16:05:01;4.00;;;3.30;;
33794;SDS011;51430;52.242;21.118;2024-02-26T16:07:41;4.50;;;4.10;;
33794;SDS011;51430;52.242;21.118;2024-02-26T16:10:17;4.90;;;4.50;;
33794;SDS011;51430;52.242;21.118;2024-02-26T16:12:50;5.20;;;4.70;;
33794;SDS011;51430;52.242;21.118;2024-02-26T16:15:58;5.40;;;4.90;;
33794;SDS011;51430;52.242;21.118;2024-02-26T16:19:06;5.70;;;5.10;;
33794;SDS011;51430;52.242;21.118;2024-02-26T16:22:24;7.80;;;5.90;;
33794;SDS011;51430;52.242;21.118;2024-02-26T16:25:07;8.00;;;5.90;;
33794;SDS011;51430;52.242;21.118;2024-02-26T16:28:22;8.60;;;6.50;;
33794;SDS011;51430;52.242;21.118;2024-02-26T16:33:16;7.00;;;6.20;;
33794;SDS011;51430;52.242;21.118;2024-02-26T16:36:59;8.70;;;6.50;;
33794;SDS011;51430;52.242;21.118;2024-02-26T16:40:25;9.40;;;7.00;;
33794;SDS011;51430;52.242;21.118;2024-02-26T16:54:54;10.00;;;8.40;;
33794;SDS011;51430;52.242;21.118;2024-02-26T16:58:42;12.50;;;8.90;;